Time;durP1;ratioP1;P1;durP2;ratioP2;P2;SDS_P1;SDS_P2;PMS_P1;PMS_P2;Temp;Humidity;BMP_temperature;BMP_pressure;BME280_temperature;BME280_humidity;BME280_pressure;Samples;Min_cycle;Max_cycle;Signal;HPM_P1;HPM_P2
2023/10/17 00:01:00;;;;;;;10.07;6.60;;;;;;;-143.90;100.00;65065.84;6184370;23;20143;-76
2023/10/17 00:03:26;;;;;;;13.55;6.90;;;;;;;-143.90;100.00;65065.84;6184275;23;20055;-77
2023/10/17 00:05:54;;;;;;;8.93;6.55;;;;;;;-143.90;100.00;65065.84;6182534;23;20013;-77
2023/10/17 00:08:20;;;;;;;9.35;6.78;;;;;;;-143.90;100.00;65065.84;6184143;23;20363;-76
2023/10/17 00:10:45;;;;;;;11.75;7.05;;;;;;;-143.90;100.00;65065.84;6184280;23;20084;-77
2023/10/17 00:13:38;;;;;;;9.48;6.53;;;;;;;-143.90;100.00;65065.84;6157724;23;20064;-76
2023/10/17 00:16:08;;;;;;;14.65;6.68;;;;;;;-143.90;100.00;65065.84;6184219;23;20013;-76
2023/10/17 00:18:33;;;;;;;17.67;7.03;;;;;;;-143.90;100.00;65065.84;6184196;23;20008;-77
2023/10/17 00:21:10;;;;;;;11.27;6.35;;;;;;;-143.90;100.00;65065.84;6184162;23;20457;-76
2023/10/17 00:23:36;;;;;;;10.77;6.15;;;;;;;-143.90;100.00;65065.84;6157840;23;20384;-77
2023/10/17 00:26:04;;;;;;;9.75;6.40;;;;;;;-143.90;100.00;65065.84;6184404;23;20045;-77
2023/10/17 00:28:30;;;;;;;8.73;6.65;;;;;;;-143.90;100.00;65065.84;6184327;23;20513;-78
2023/10/17 00:30:55;;;;;;;9.63;6.03;;;;;;;-143.90;100.00;65065.84;6184329;23;20373;-77
2023/10/17 00:33:23;;;;;;;9.30;6.15;;;;;;;-143.90;100.00;65065.84;6157608;23;20059;-76
2023/10/17 00:35:50;;;;;;;8.50;6.45;;;;;;;-143.90;100.00;65065.84;6183999;23;20009;-77
2023/10/17 00:38:15;;;;;;;11.43;6.20;;;;;;;-143.90;100.00;65065.84;6184138;23;20101;-77
2023/10/17 00:43:11;;;;;;;10.95;6.30;;;;;;;-143.90;100.00;65065.84;6184314;23;20009;-76
2023/10/17 00:45:37;;;;;;;10.60;6.38;;;;;;;-143.90;100.00;65065.84;6183921;23;20009;-77
2023/10/17 00:48:08;;;;;;;9.73;6.95;;;;;;;-143.90;100.00;65065.84;6184040;23;20071;-77
2023/10/17 00:50:35;;;;;;;10.25;6.40;;;;;;;-143.90;100.00;65065.84;6182725;23;20009;-77
2023/10/17 00:53:00;;;;;;;9.77;6.53;;;;;;;-143.90;100.00;65065.84;6184035;23;20448;-77
2023/10/17 00:55:26;;;;;;;10.77;6.25;;;;;;;-143.90;100.00;65065.84;6184065;23;20012;-76
2023/10/17 00:57:53;;;;;;;10.63;6.57;;;;;;;-143.90;100.00;65065.84;6183939;23;20028;-76
2023/10/17 01:00:53;;;;;;;9.65;6.05;;;;;;;-143.90;100.00;65065.84;6184130;23;20060;-76
2023/10/17 01:03:10;;;;;;;13.18;7.05;;;;;;;-143.90;100.00;65065.84;6181200;23;20024;-76
2023/10/17 01:06:01;;;;;;;10.95;6.57;;;;;;;-143.90;100.00;65065.84;6183863;23;20004;-76
2023/10/17 01:08:46;;;;;;;9.52;6.30;;;;;;;-143.90;100.00;65065.84;6157205;23;20438;-76
2023/10/17 01:11:20;;;;;;;10.93;6.80;;;;;;;-143.90;100.00;65065.84;6184026;23;20005;-76
2023/10/17 01:13:47;;;;;;;11.45;6.95;;;;;;;-143.90;100.00;65065.84;6157604;23;20009;-77
2023/10/17 01:16:15;;;;;;;9.52;6.25;;;;;;;-143.90;100.00;65065.84;6183967;23;20024;-75
2023/10/17 01:18:44;;;;;;;8.68;6.07;;;;;;;-143.90;100.00;65065.84;6182280;23;20480;-76
2023/10/17 01:21:11;;;;;;;12.10;6.60;;;;;;;-143.90;100.00;65065.84;6184236;23;20063;-76
2023/10/17 01:23:38;;;;;;;9.18;5.95;;;;;;;-143.90;100.00;65065.84;6183952;23;20058;-76
2023/10/17 01:26:08;;;;;;;10.57;6.72;;;;;;;-143.90;100.00;65065.84;6182291;23;20315;-77
2023/10/17 01:28:34;;;;;;;11.52;6.20;;;;;;;-143.90;100.00;65065.84;6184081;23;20024;-77
2023/10/17 01:31:01;;;;;;;10.40;6.53;;;;;;;-143.90;100.00;65065.84;6183852;23;20055;-77
2023/10/17 01:33:29;;;;;;;9.38;6.53;;;;;;;-143.90;100.00;65065.84;6183820;23;20017;-75
2023/10/17 01:36:00;;;;;;;8.77;6.03;;;;;;;-143.90;100.00;65065.84;6182252;23;20036;-75
2023/10/17 01:38:26;;;;;;;11.45;6.95;;;;;;;-143.90;100.00;65065.84;6182292;23;20005;-76
2023/10/17 01:40:53;;;;;;;8.13;5.80;;;;;;;-143.90;100.00;65065.84;6183828;23;20005;-76
2023/10/17 01:43:18;;;;;;;8.98;6.00;;;;;;;-143.90;100.00;65065.84;6183766;23;20037;-76
2023/10/17 01:45:48;;;;;;;9.27;6.47;;;;;;;-143.90;100.00;65065.84;6183616;23;20477;-76
2023/10/17 01:48:13;;;;;;;10.38;5.95;;;;;;;-143.90;100.00;65065.84;6183752;23;20136;-77
2023/10/17 01:50:39;;;;;;;10.77;6.57;;;;;;;-143.90;100.00;65065.84;6183752;23;20036;-78
2023/10/17 01:53:12;;;;;;;15.27;6.68;;;;;;;-143.90;100.00;65065.84;6183988;23;20005;-77
2023/10/17 01:55:39;;;;;;;11.73;6.65;;;;;;;-143.90;100.00;65065.84;6183909;23;20016;-78
2023/10/17 01:58:07;;;;;;;11.13;6.20;;;;;;;-143.90;100.00;65065.84;6183761;23;20004;-77
2023/10/17 02:02:59;;;;;;;10.52;6.30;;;;;;;-143.90;100.00;65065.84;6183917;23;20438;-77
2023/10/17 02:05:25;;;;;;;10.45;6.57;;;;;;;-143.90;100.00;65065.84;6183507;23;20012;-77
2023/10/17 02:07:51;;;;;;;13.15;6.57;;;;;;;-143.90;100.00;65065.84;6157325;23;20438;-77
2023/10/17 02:10:24;;;;;;;10.25;7.32;;;;;;;-143.90;100.00;65065.84;6181944;23;20013;-78
2023/10/17 02:12:50;;;;;;;;;;;;;;;-143.90;100.00;65065.84;6182475;23;20067;-76
2023/10/17 02:15:26;;;;;;;7.47;5.93;;;;;;;-143.90;100.00;65065.84;6183654;23;19908;-77
2023/10/17 02:17:53;;;;;;;12.70;7.25;;;;;;;-143.90;100.00;65065.84;6183274;23;20032;-77
2023/10/17 02:23:06;;;;;;;9.63;6.60;;;;;;;-143.90;100.00;65065.84;6187998;23;20013;-78
2023/10/17 02:25:35;;;;;;;11.13;7.22;;;;;;;-143.90;100.00;65065.84;6183456;23;20036;-78
2023/10/17 02:28:01;;;;;;;9.95;7.43;;;;;;;-143.90;100.00;65065.84;6156913;23;20020;-77
2023/10/17 02:30:27;;;;;;;9.65;6.72;;;;;;;-143.90;100.00;65065.84;6183471;23;20001;-78
2023/10/17 02:32:53;;;;;;;10.43;7.00;;;;;;;-143.90;100.00;65065.84;6157026;23;20024;-76
2023/10/17 02:35:28;;;;;;;10.38;7.40;;;;;;;-143.90;100.00;65065.84;6183395;23;20021;-76
2023/10/17 02:37:53;;;;;;;11.57;8.02;;;;;;;-143.90;100.00;65065.84;6183393;23;20005;-78
2023/10/17 02:40:23;;;;;;;11.13;7.75;;;;;;;-143.90;100.00;65065.84;6183270;23;20001;-78
2023/10/17 02:42:49;;;;;;;12.07;7.07;;;;;;;-143.90;100.00;65065.84;6183382;23;20035;-77
2023/10/17 02:45:27;;;;;;;9.73;7.18;;;;;;;-143.90;100.00;65065.84;6183143;23;20008;-76
2023/10/17 02:47:53;;;;;;;14.45;8.00;;;;;;;-143.90;100.00;65065.84;6156874;23;20040;-77
2023/10/17 02:50:41;;;;;;;12.00;7.95;;;;;;;-143.90;100.00;65065.84;6183333;23;20052;-77
2023/10/17 02:53:06;;;;;;;12.38;8.07;;;;;;;-143.90;100.00;65065.84;6183116;23;20017;-77
2023/10/17 02:55:31;;;;;;;13.45;8.65;;;;;;;-143.90;100.00;65065.84;6181736;23;20020;-77
2023/10/17 02:57:56;;;;;;;14.65;8.02;;;;;;;-143.90;100.00;65065.84;6156647;23;20009;-77
2023/10/17 03:00:23;;;;;;;12.25;8.25;;;;;;;-143.90;100.00;65065.84;6156896;23;20378;-76
2023/10/17 03:02:52;;;;;;;13.25;8.65;;;;;;;-143.90;100.00;65065.84;6183039;23;20028;-78
2023/10/17 03:05:18;;;;;;;11.90;8.38;;;;;;;-143.90;100.00;65065.84;6181462;23;20023;-78
2023/10/17 03:07:49;;;;;;;12.63;8.70;;;;;;;-143.90;100.00;65065.84;6181464;23;20340;-78
2023/10/17 03:10:20;;;;;;;13.07;9.10;;;;;;;-143.90;100.00;65065.84;6156677;23;20426;-78
2023/10/17 03:13:03;;;;;;;13.65;9.25;;;;;;;-143.90;100.00;65065.84;6183100;23;20012;-77
2023/10/17 03:15:29;;;;;;;;;;;;;;;-143.90;100.00;65065.84;6183635;23;20005;-78
2023/10/17 03:18:00;;;;;;;14.32;8.88;;;;;;;-143.90;100.00;65065.84;6182882;23;19935;-79
2023/10/17 03:20:36;;;;;;;17.05;10.52;;;;;;;-143.90;100.00;65065.84;6181971;23;20485;-79
2023/10/17 03:23:08;;;;;;;13.98;9.55;;;;;;;-143.90;100.00;65065.84;6183086;23;20031;-78
2023/10/17 03:25:37;;;;;;;14.68;9.93;;;;;;;-143.90;100.00;65065.84;6182912;23;20009;-78
2023/10/17 03:28:08;;;;;;;15.50;9.88;;;;;;;-143.90;100.00;65065.84;6183006;23;20438;-78
2023/10/17 03:30:34;;;;;;;14.18;9.13;;;;;;;-143.90;100.00;65065.84;6183513;23;20055;-79
2023/10/17 03:35:25;;;;;;;16.92;10.60;;;;;;;-143.90;100.00;65065.84;6184716;23;20469;-77
2023/10/17 03:37:51;;;;;;;13.70;10.30;;;;;;;-143.90;100.00;65065.84;6182905;23;20009;-77
2023/10/17 03:40:18;;;;;;;20.08;11.35;;;;;;;-143.90;100.00;65065.84;6182812;23;20359;-77
2023/10/17 03:42:45;;;;;;;21.48;11.25;;;;;;;-143.90;100.00;65065.84;6184421;23;20005;-79
2023/10/17 03:45:17;;;;;;;19.77;12.05;;;;;;;-143.90;100.00;65065.84;6184270;23;20430;-77
2023/10/17 03:47:47;;;;;;;14.35;9.90;;;;;;;-143.90;100.00;65065.84;6182832;23;20060;-78
2023/10/17 03:50:31;;;;;;;21.48;11.68;;;;;;;-143.90;100.00;65065.84;6184392;23;20028;-77
2023/10/17 03:53:08;;;;;;;18.38;11.50;;;;;;;-143.90;100.00;65065.84;6184300;23;20001;-78
2023/10/17 03:55:42;;;;;;;15.73;11.25;;;;;;;-143.90;100.00;65065.84;6184381;23;20013;-78
2023/10/17 03:58:18;;;;;;;19.27;12.43;;;;;;;-143.90;100.00;65065.84;6157931;23;20378;-76
2023/10/17 04:00:44;;;;;;;16.40;10.82;;;;;;;-143.90;100.00;65065.84;6184162;23;20025;-78
2023/10/17 04:03:18;;;;;;;27.88;13.77;;;;;;;-143.90;100.00;65065.84;6182610;23;20012;-78
2023/10/17 04:05:44;;;;;;;17.65;11.90;;;;;;;-143.90;100.00;65065.84;6157899;23;20057;-77
2023/10/17 04:08:09;;;;;;;21.40;12.23;;;;;;;-143.90;100.00;65065.84;6182653;23;20382;-76
2023/10/17 04:10:49;;;;;;;17.70;11.82;;;;;;;-143.90;100.00;65065.84;6157754;23;20069;-77
2023/10/17 04:15:45;;;;;;;20.13;13.15;;;;;;;-143.90;100.00;65065.84;6187188;23;20092;-78
2023/10/17 04:18:11;;;;;;;21.95;12.93;;;;;;;-143.90;100.00;65065.84;6184163;23;20043;-77
2023/10/17 04:20:38;;;;;;;21.33;13.35;;;;;;;-143.90;100.00;65065.84;6184109;23;20040;-78
2023/10/17 04:23:05;;;;;;;20.08;12.80;;;;;;;-143.90;100.00;65065.84;6182557;23;20334;-77
2023/10/17 04:27:59;;;;;;;20.95;12.93;;;;;;;-143.90;100.00;65065.84;6184466;23;20017;-77
2023/10/17 04:30:35;;;;;;;24.95;13.45;;;;;;;-143.90;100.00;65065.84;6184162;23;20434;-77
2023/10/17 04:33:12;;;;;;;21.77;13.35;;;;;;;-143.90;100.00;65065.84;6184162;23;20009;-76
2023/10/17 04:35:46;;;;;;;24.52;14.13;;;;;;;-143.90;100.00;65065.84;6182604;23;20338;-77
2023/10/17 04:43:55;;;;;;;20.45;12.25;;;;;;;-143.90;100.00;65065.84;6192779;23;20044;-76
2023/10/17 04:46:29;;;;;;;21.23;13.20;;;;;;;-143.90;100.00;65065.84;6183878;23;20016;-76
2023/10/17 04:49:06;;;;;;;21.15;12.70;;;;;;;-143.90;100.00;65065.84;6184155;23;20005;-76
2023/10/17 04:51:38;;;;;;;20.10;12.38;;;;;;;-143.90;100.00;65065.84;6184066;23;20005;-77
2023/10/17 04:54:22;;;;;;;23.23;13.88;;;;;;;-143.90;100.00;65065.84;6183912;23;20029;-76
2023/10/17 05:00:11;;;;;;;20.92;13.88;;;;;;;-143.90;100.00;65065.84;6184359;23;20020;-76
2023/10/17 05:02:36;;;;;;;23.83;13.45;;;;;;;-143.90;100.00;65065.84;6184065;23;20001;-76
2023/10/17 06:16:51;;;;;;;27.30;16.52;;;;;;;-143.90;100.00;65065.84;6185481;23;20055;-77
2023/10/17 06:19:21;;;;;;;25.98;16.05;;;;;;;-143.90;100.00;65065.84;6184158;23;20013;-77
2023/10/17 06:28:13;;;;;;;28.80;16.92;;;;;;;-143.90;100.00;65065.84;6192284;23;20044;-77
2023/10/17 06:34:47;;;;;;;29.95;16.25;;;;;;;-143.90;100.00;65065.84;6183853;23;20013;-76
2023/10/17 06:37:19;;;;;;;24.83;15.45;;;;;;;-143.90;100.00;65065.84;6183235;23;20016;-78
2023/10/17 06:39:49;;;;;;;24.07;16.70;;;;;;;-143.90;100.00;65065.84;6181815;23;20004;-79
2023/10/17 06:42:14;;;;;;;26.13;15.65;;;;;;;-143.90;100.00;65065.84;6183058;23;20236;-76
2023/10/17 06:45:07;;;;;;;27.17;15.07;;;;;;;-143.90;100.00;65065.84;6156937;23;20009;-78
2023/10/17 06:47:41;;;;;;;25.65;15.63;;;;;;;-143.90;100.00;65065.84;6183294;23;20056;-77
2023/10/17 06:55:43;;;;;;;24.80;15.13;;;;;;;-143.90;100.00;65065.84;6187344;23;20413;-77
2023/10/17 06:58:09;;;;;;;27.10;14.57;;;;;;;-143.90;100.00;65065.84;6183220;23;20037;-79
2023/10/17 07:00:51;;;;;;;24.23;15.40;;;;;;;-143.90;100.00;65065.84;6183006;23;20008;-79
2023/10/17 07:03:34;;;;;;;26.92;15.13;;;;;;;-143.90;100.00;65065.84;6183172;23;20330;-78
2023/10/17 07:06:20;;;;;;;26.73;15.30;;;;;;;-143.90;100.00;65065.84;6183901;23;20016;-78
2023/10/17 07:08:46;;;;;;;23.65;15.65;;;;;;;-143.90;100.00;65065.84;6185155;23;20005;-80
2023/10/17 07:21:57;;;;;;;;;;;;;;;-143.90;100.00;65065.84;6191318;23;20015;-77
2023/10/17 07:24:23;;;;;;;21.15;13.25;;;;;;;-143.90;100.00;65065.84;6184428;23;20457;-77
2023/10/17 07:26:52;;;;;;;23.77;14.55;;;;;;;-143.90;100.00;65065.84;6182754;23;20005;-79
2023/10/17 07:29:23;;;;;;;17.08;12.85;;;;;;;-143.90;100.00;65065.84;6184415;23;20079;-78
2023/10/17 07:31:54;;;;;;;20.98;14.20;;;;;;;-143.90;100.00;65065.84;6184399;23;20331;-77
2023/10/17 07:34:23;;;;;;;19.95;13.55;;;;;;;-143.90;100.00;65065.84;6184246;23;20012;-77
2023/10/17 07:36:58;;;;;;;22.17;14.65;;;;;;;-143.90;100.00;65065.84;6184231;23;20379;-77
2023/10/17 07:41:53;;;;;;;17.85;13.80;;;;;;;-143.90;100.00;65065.84;6184577;23;20531;-79
2023/10/17 07:44:22;;;;;;;23.08;13.65;;;;;;;-143.90;100.00;65065.84;6184405;23;20072;-78
2023/10/17 07:47:08;;;;;;;19.95;12.55;;;;;;;-143.90;100.00;65065.84;6182497;23;20017;-79
2023/10/17 07:49:42;;;;;;;19.15;11.80;;;;;;;-143.90;100.00;65065.84;6182762;23;20324;-78
2023/10/17 07:52:10;;;;;;;17.55;12.48;;;;;;;-143.90;100.00;65065.84;6182611;23;20422;-78
2023/10/17 07:54:45;;;;;;;18.42;12.55;;;;;;;-143.90;100.00;65065.84;6182627;23;20016;-78
2023/10/17 07:57:22;;;;;;;18.95;12.48;;;;;;;-143.90;100.00;65065.84;6184743;23;20016;-79
2023/10/17 07:59:51;;;;;;;23.35;13.70;;;;;;;-143.90;100.00;65065.84;6182885;23;20009;-78
2023/10/17 08:02:23;;;;;;;17.52;13.15;;;;;;;-143.90;100.00;65065.84;6184147;23;20071;-78
2023/10/17 08:04:48;;;;;;;20.45;13.68;;;;;;;-143.90;100.00;65065.84;6184042;23;20009;-78
2023/10/17 08:07:15;;;;;;;19.77;13.90;;;;;;;-143.90;100.00;65065.84;6184069;23;20031;-77
2023/10/17 08:09:50;;;;;;;16.83;12.48;;;;;;;-143.90;100.00;65065.84;6184098;23;20426;-79
2023/10/17 08:12:15;;;;;;;17.98;12.25;;;;;;;-143.90;100.00;65065.84;6184206;23;20339;-78
2023/10/17 08:14:41;;;;;;;21.13;12.38;;;;;;;-143.90;100.00;65065.84;6157785;23;20017;-78
2023/10/17 08:17:08;;;;;;;20.58;12.82;;;;;;;-143.90;100.00;65065.84;6182143;23;20427;-79
2023/10/17 08:22:18;;;;;;;17.73;13.18;;;;;;;-143.90;100.00;65065.84;6184006;23;20028;-76
2023/10/17 08:24:51;;;;;;;14.90;11.50;;;;;;;-143.90;100.00;65065.84;6184098;23;20334;-77
2023/10/17 08:29:57;;;;;;;16.70;13.45;;;;;;;-143.90;100.00;65065.84;6187966;23;20440;-77
2023/10/17 08:35:36;;;;;;;15.63;12.38;;;;;;;-143.90;100.00;65065.84;6184317;23;20481;-78
2023/10/17 08:37:44;;;;;;;18.45;11.05;;;;;;;-143.90;100.00;65065.84;6181386;23;20024;-77
2023/10/17 08:40:29;;;;;;;18.92;13.63;;;;;;;-143.90;100.00;65065.84;6184652;23;20028;-77
2023/10/17 08:42:56;;;;;;;14.40;11.27;;;;;;;-143.90;100.00;65065.84;6182697;23;20016;-78
2023/10/17 08:45:26;;;;;;;17.52;11.40;;;;;;;-143.90;100.00;65065.84;6182671;23;20001;-78
2023/10/17 08:48:00;;;;;;;16.90;11.93;;;;;;;-143.90;100.00;65065.84;6184302;23;20009;-76
2023/10/17 08:50:30;;;;;;;14.98;11.75;;;;;;;-143.90;100.00;65065.84;6183095;23;20013;-77
2023/10/17 08:52:59;;;;;;;16.77;12.18;;;;;;;-143.90;100.00;65065.84;6157945;23;20021;-76
2023/10/17 08:55:25;;;;;;;15.60;11.07;;;;;;;-143.90;100.00;65065.84;6184643;23;20001;-78
2023/10/17 08:58:04;;;;;;;14.48;11.77;;;;;;;-143.90;100.00;65065.84;6184430;23;20385;-76
2023/10/17 09:03:10;;;;;;;13.27;9.30;;;;;;;-143.90;100.00;65065.84;6190241;23;20457;-75
2023/10/17 09:05:58;;;;;;;14.07;10.45;;;;;;;-143.90;100.00;65065.84;6157797;23;20521;-75
2023/10/17 09:08:41;;;;;;;12.77;8.90;;;;;;;-143.90;100.00;65065.84;6184059;23;20448;-74
2023/10/17 09:11:08;;;;;;;10.57;9.40;;;;;;;-143.90;100.00;65065.84;6182295;23;20009;-77
2023/10/17 09:14:10;;;;;;;12.30;8.57;;;;;;;-143.90;100.00;65065.84;6183834;23;20004;-77
2023/10/17 09:16:34;;;;;;;11.35;8.07;;;;;;;-143.90;100.00;65065.84;6183806;23;20083;-77
2023/10/17 09:19:09;;;;;;;10.25;7.60;;;;;;;-143.90;100.00;65065.84;6182240;23;20013;-77
2023/10/17 09:21:35;;;;;;;10.27;8.43;;;;;;;-143.90;100.00;65065.84;6183937;23;20035;-78
2023/10/17 09:24:00;;;;;;;10.10;7.68;;;;;;;-143.90;100.00;65065.84;6157683;23;20001;-77
2023/10/17 09:26:25;;;;;;;10.85;7.90;;;;;;;-143.90;100.00;65065.84;6182384;23;20005;-78
2023/10/17 09:29:00;;;;;;;8.98;6.80;;;;;;;-143.90;100.00;65065.84;6183457;23;20005;-76
2023/10/17 09:31:26;;;;;;;8.93;6.72;;;;;;;-143.90;100.00;65065.84;6183919;23;20005;-76
2023/10/17 09:33:53;;;;;;;11.13;6.85;;;;;;;-143.90;100.00;65065.84;6184068;23;20020;-77
2023/10/17 09:36:19;;;;;;;11.35;6.93;;;;;;;-143.90;100.00;65065.84;6182006;23;20057;-76
2023/10/17 09:38:46;;;;;;;11.70;6.75;;;;;;;-143.90;100.00;65065.84;6183995;23;20001;-78
2023/10/17 09:41:17;;;;;;;10.38;7.15;;;;;;;-143.90;100.00;65065.84;6157622;23;20496;-77
2023/10/17 09:43:46;;;;;;;11.13;7.22;;;;;;;-143.90;100.00;65065.84;6183907;23;20036;-78
2023/10/17 09:46:12;;;;;;;9.48;6.63;;;;;;;-143.90;100.00;65065.84;6157332;23;20009;-78
2023/10/17 09:48:43;;;;;;;8.02;6.72;;;;;;;-143.90;100.00;65065.84;6183996;23;20059;-76
2023/10/17 09:51:13;;;;;;;8.18;7.07;;;;;;;-143.90;100.00;65065.84;6184183;23;20312;-77
2023/10/17 09:53:40;;;;;;;9.40;7.13;;;;;;;-143.90;100.00;65065.84;6183963;23;20005;-77
2023/10/17 09:56:15;;;;;;;9.52;6.53;;;;;;;-143.90;100.00;65065.84;6157339;23;20115;-77
2023/10/17 09:58:45;;;;;;;8.48;7.38;;;;;;;-143.90;100.00;65065.84;6182185;23;20092;-76
2023/10/17 10:01:17;;;;;;;6.95;6.00;;;;;;;-143.90;100.00;65065.84;6183817;23;20361;-75
2023/10/17 10:03:45;;;;;;;10.57;6.35;;;;;;;-143.90;100.00;65065.84;6183656;23;20445;-78
2023/10/17 10:06:31;;;;;;;9.75;6.97;;;;;;;-143.90;100.00;65065.84;6181900;23;20020;-78
2023/10/17 10:09:19;;;;;;;9.85;6.93;;;;;;;-143.90;100.00;65065.84;6183772;23;20422;-78
2023/10/17 10:11:53;;;;;;;5.72;5.05;;;;;;;-143.90;100.00;65065.84;6157225;23;20487;-78
2023/10/17 10:14:27;;;;;;;7.80;6.47;;;;;;;-143.90;100.00;65065.84;6157088;23;20013;-78
2023/10/17 10:16:54;;;;;;;7.95;6.38;;;;;;;-143.90;100.00;65065.84;6157179;23;20070;-77
2023/10/17 10:19:46;;;;;;;7.70;6.30;;;;;;;-143.90;100.00;65065.84;6157036;23;20001;-77
2023/10/17 10:22:16;;;;;;;7.18;5.20;;;;;;;-143.90;100.00;65065.84;6183508;23;20009;-80
2023/10/17 10:24:43;;;;;;;8.18;5.40;;;;;;;-143.90;100.00;65065.84;6183457;23;20001;-78
2023/10/17 10:27:08;;;;;;;9.23;6.03;;;;;;;-143.90;100.00;65065.84;6183457;23;20446;-78
2023/10/17 10:29:34;;;;;;;8.85;5.32;;;;;;;-143.90;100.00;65065.84;6183501;23;20001;-79
2023/10/17 10:32:05;;;;;;;9.35;6.28;;;;;;;-143.90;100.00;65065.84;6181878;23;20088;-76
2023/10/17 10:34:39;;;;;;;6.47;5.80;;;;;;;-143.90;100.00;65065.84;6183394;23;20418;-77
2023/10/17 10:37:04;;;;;;;8.57;6.20;;;;;;;-143.90;100.00;65065.84;6183556;23;20083;-78
2023/10/17 10:39:30;;;;;;;7.93;5.55;;;;;;;-143.90;100.00;65065.84;6157079;23;20085;-82
2023/10/17 10:41:58;;;;;;;8.68;5.18;;;;;;;-143.90;100.00;65065.84;6184632;23;20044;-82
2023/10/17 10:44:23;;;;;;;7.43;5.75;;;;;;;-143.90;100.00;65065.84;6184715;23;20008;-82
2023/10/17 10:46:48;;;;;;;8.67;5.80;;;;;;;-143.90;100.00;65065.84;6158392;23;20016;-85
2023/10/17 10:49:14;;;;;;;7.60;5.45;;;;;;;-143.90;100.00;65065.84;6158365;23;20701;-80
2023/10/17 10:51:47;;;;;;;10.80;5.43;;;;;;;-143.90;100.00;65065.84;6158370;23;20088;-84
2023/10/17 10:54:13;;;;;;;7.13;5.45;;;;;;;-143.90;100.00;65065.84;6134165;23;20009;-83
2023/10/17 10:56:38;;;;;;;7.97;5.28;;;;;;;-143.90;100.00;65065.84;6184726;23;20480;-86
2023/10/17 10:59:05;;;;;;;8.45;5.20;;;;;;;-143.90;100.00;65065.84;6184667;23;20001;-82
2023/10/17 11:01:30;;;;;;;7.28;5.05;;;;;;;-143.90;100.00;65065.84;6183063;23;20013;-83
2023/10/17 11:03:58;;;;;;;7.20;5.20;;;;;;;-143.90;100.00;65065.84;6158334;23;20338;-85
2023/10/17 11:06:25;;;;;;;8.70;5.55;;;;;;;-143.90;100.00;65065.84;6183002;23;20035;-81
2023/10/17 11:08:52;;;;;;;7.43;5.47;;;;;;;-143.90;100.00;65065.84;6184543;23;20001;-85
2023/10/17 11:11:18;;;;;;;7.93;5.13;;;;;;;-143.90;100.00;65065.84;6158282;23;20377;-82
2023/10/17 11:13:45;;;;;;;5.65;4.50;;;;;;;-143.90;100.00;65065.84;6184530;23;20401;-84
2023/10/17 11:16:14;;;;;;;7.07;4.72;;;;;;;-143.90;100.00;65065.84;6184436;23;20005;-83
2023/10/17 11:18:44;;;;;;;7.45;5.43;;;;;;;-143.90;100.00;65065.84;6184444;23;20012;-84
2023/10/17 11:21:10;;;;;;;7.60;4.50;;;;;;;-143.90;100.00;65065.84;6184518;23;20008;-85
2023/10/17 11:23:50;;;;;;;6.10;4.78;;;;;;;-143.90;100.00;65065.84;6184312;23;20434;-82
2023/10/17 11:26:19;;;;;;;6.45;4.30;;;;;;;-143.90;100.00;65065.84;6182811;23;20005;-82
2023/10/17 11:28:51;;;;;;;5.57;4.22;;;;;;;-143.90;100.00;65065.84;6184590;23;20067;-81
2023/10/17 11:31:27;;;;;;;6.55;4.90;;;;;;;-143.90;100.00;65065.84;6182879;23;20291;-83
2023/10/17 11:34:03;;;;;;;7.72;4.82;;;;;;;-143.90;100.00;65065.84;6184382;23;20005;-82
2023/10/17 11:36:35;;;;;;;6.55;4.90;;;;;;;-143.90;100.00;65065.84;6184421;23;20013;-81
2023/10/17 11:39:04;;;;;;;7.30;4.60;;;;;;;-143.90;100.00;65065.84;6157937;23;20008;-84
2023/10/17 11:41:39;;;;;;;5.13;4.43;;;;;;;-143.90;100.00;65065.84;6184284;23;20062;-83
2023/10/17 11:44:05;;;;;;;7.88;5.18;;;;;;;-143.90;100.00;65065.84;6158052;23;20495;-84
2023/10/17 11:46:31;;;;;;;6.55;5.55;;;;;;;-143.90;100.00;65065.84;6184138;23;20096;-83
2023/10/17 11:49:30;;;;;;;6.78;4.72;;;;;;;-143.90;100.00;65065.84;6184421;23;20052;-84
2023/10/17 11:52:10;;;;;;;8.35;5.72;;;;;;;-143.90;100.00;65065.84;6184137;23;20316;-85
2023/10/17 11:54:56;;;;;;;7.18;4.90;;;;;;;-143.90;100.00;65065.84;6157964;23;20052;-82
2023/10/17 11:57:23;;;;;;;6.10;4.95;;;;;;;-143.90;100.00;65065.84;6184283;23;20009;-84
2023/10/17 11:59:56;;;;;;;5.57;4.60;;;;;;;-143.90;100.00;65065.84;6184270;23;20012;-83
2023/10/17 12:02:22;;;;;;;5.40;4.30;;;;;;;-143.90;100.00;65065.84;6184141;23;20012;-80
2023/10/17 12:04:47;;;;;;;6.57;4.68;;;;;;;-143.90;100.00;65065.84;6184220;23;20009;-82
2023/10/17 12:07:13;;;;;;;6.35;4.55;;;;;;;-143.90;100.00;65065.84;6182667;23;20367;-81
2023/10/17 12:09:38;;;;;;;6.45;4.75;;;;;;;-143.90;100.00;65065.84;6184126;23;20064;-84
2023/10/17 12:12:04;;;;;;;6.73;5.43;;;;;;;-143.90;100.00;65065.84;6157787;23;20024;-81
2023/10/17 12:14:29;;;;;;;7.97;4.53;;;;;;;-143.90;100.00;65065.84;6157772;23;20245;-83
2023/10/17 12:16:54;;;;;;;7.68;5.47;;;;;;;-143.90;100.00;65065.84;6184207;23;20009;-85
2023/10/17 12:19:20;;;;;;;5.68;4.60;;;;;;;-143.90;100.00;65065.84;6157790;23;20013;-81
2023/10/17 12:21:49;;;;;;;5.80;4.03;;;;;;;-143.90;100.00;65065.84;6184338;23;20323;-80
2023/10/17 12:24:24;;;;;;;6.28;4.13;;;;;;;-143.90;100.00;65065.84;6182683;23;20804;-83
2023/10/17 12:26:50;;;;;;;5.25;3.92;;;;;;;-143.90;100.00;65065.84;6184208;23;20012;-82
2023/10/17 12:29:16;;;;;;;6.35;4.18;;;;;;;-143.90;100.00;65065.84;6184245;23;20013;-83
2023/10/17 12:31:42;;;;;;;4.43;4.03;;;;;;;-143.90;100.00;65065.84;6184193;23;20008;-83
2023/10/17 12:34:10;;;;;;;6.38;4.97;;;;;;;-143.90;100.00;65065.84;6184107;23;20044;-82
2023/10/17 12:36:36;;;;;;;7.60;4.80;;;;;;;-143.90;100.00;65065.84;6182519;23;20012;-81
2023/10/17 12:39:02;;;;;;;5.45;3.78;;;;;;;-143.90;100.00;65065.84;6184117;23;20009;-81
2023/10/17 12:41:29;;;;;;;5.68;4.20;;;;;;;-143.90;100.00;65065.84;6184168;23;20482;-83
2023/10/17 12:43:54;;;;;;;7.70;4.13;;;;;;;-143.90;100.00;65065.84;6184119;23;20005;-81
2023/10/17 12:46:20;;;;;;;7.10;4.93;;;;;;;-143.90;100.00;65065.84;6184089;23;20083;-83
2023/10/17 12:48:46;;;;;;;5.57;4.25;;;;;;;-143.90;100.00;65065.84;6157731;23;20068;-83
2023/10/17 12:51:12;;;;;;;7.07;4.25;;;;;;;-143.90;100.00;65065.84;6182497;23;20009;-83
2023/10/17 12:53:37;;;;;;;3.70;3.35;;;;;;;-143.90;100.00;65065.84;6184124;23;20044;-83
2023/10/17 12:56:04;;;;;;;6.63;5.00;;;;;;;-143.90;100.00;65065.84;6157658;23;20089;-82
2023/10/17 12:58:36;;;;;;;5.10;3.33;;;;;;;-143.90;100.00;65065.84;6184089;23;20338;-82
2023/10/17 13:01:04;;;;;;;6.65;3.20;;;;;;;-143.90;100.00;65065.84;6182439;23;20390;-81
2023/10/17 13:03:33;;;;;;;4.93;3.42;;;;;;;-143.90;100.00;65065.84;6181984;23;20012;-81
2023/10/17 13:05:58;;;;;;;5.15;4.18;;;;;;;-143.90;100.00;65065.84;6183956;23;20016;-83
2023/10/17 13:08:24;;;;;;;6.23;4.43;;;;;;;-143.90;100.00;65065.84;6182641;23;20312;-82
2023/10/17 13:10:50;;;;;;;3.97;3.17;;;;;;;-143.90;100.00;65065.84;6184516;23;20264;-82
2023/10/17 13:13:15;;;;;;;4.50;3.80;;;;;;;-143.90;100.00;65065.84;6182471;23;20573;-80
2023/10/17 13:15:43;;;;;;;5.28;3.50;;;;;;;-143.90;100.00;65065.84;6183886;23;20084;-85
2023/10/17 13:18:10;;;;;;;4.88;4.03;;;;;;;-143.90;100.00;65065.84;6182291;23;20349;-81
2023/10/17 13:20:36;;;;;;;6.10;4.43;;;;;;;-143.90;100.00;65065.84;6182379;23;20025;-81
2023/10/17 13:23:04;;;;;;;4.55;3.85;;;;;;;-143.90;100.00;65065.84;6182505;23;20012;-82
2023/10/17 13:25:38;;;;;;;5.57;3.90;;;;;;;-143.90;100.00;65065.84;6182345;23;20009;-83
2023/10/17 13:28:04;;;;;;;7.78;3.95;;;;;;;-143.90;100.00;65065.84;6183864;23;20017;-84
2023/10/17 13:30:30;;;;;;;4.60;3.90;;;;;;;-143.90;100.00;65065.84;6182352;23;20444;-83
2023/10/17 13:32:55;;;;;;;5.75;4.15;;;;;;;-143.90;100.00;65065.84;6183981;23;20316;-81